createdAt,value
2018-11-13T00:00:53.869Z,1005.69
2018-11-13T00:02:03.687Z,1005.72
2018-11-13T00:03:13.260Z,1005.72
2018-11-13T00:04:23.089Z,1005.69
2018-11-13T00:05:32.905Z,1005.72
2018-11-13T00:06:42.983Z,1005.66
2018-11-13T00:07:52.781Z,1005.68
2018-11-13T00:09:02.862Z,1005.7
2018-11-13T00:10:12.945Z,1005.72
2018-11-13T00:11:22.647Z,1005.72
2018-11-13T00:12:32.992Z,1005.74
2018-11-13T00:13:42.796Z,1005.75
2018-11-13T00:14:52.869Z,1005.71
2018-11-13T00:16:02.399Z,1005.69
2018-11-13T00:17:12.467Z,1005.75
2018-11-13T00:18:22.521Z,1005.74
2018-11-13T00:19:32.623Z,1005.78
2018-11-13T00:20:42.416Z,1005.79
2018-11-13T00:21:52.226Z,1005.8
2018-11-13T00:23:02.598Z,1005.81
2018-11-13T00:24:12.408Z,1005.8
2018-11-13T00:25:22.226Z,1005.86
2018-11-13T00:26:32.052Z,1005.91
2018-11-13T00:27:42.206Z,1005.85
2018-11-13T00:28:52.586Z,1005.86
2018-11-13T00:30:02.668Z,1005.83
2018-11-13T00:31:12.471Z,1005.77
2018-11-13T00:32:22.560Z,1005.83
2018-11-13T00:33:32.385Z,1005.81
2018-11-13T00:34:42.262Z,1005.83
2018-11-13T00:35:52.325Z,1005.84
2018-11-13T00:37:03.818Z,1005.86
2018-11-13T00:38:13.670Z,1005.85
2018-11-13T00:39:23.232Z,1005.79
2018-11-13T00:40:33.097Z,1005.82
2018-11-13T00:41:42.911Z,1005.82
2018-11-13T00:42:52.986Z,1005.77
2018-11-13T00:44:02.519Z,1005.8
2018-11-13T00:45:12.379Z,1005.83
2018-11-13T00:46:22.146Z,1005.86
2018-11-13T00:47:32.228Z,1005.81
2018-11-13T00:48:42.304Z,1005.82
2018-11-13T00:49:52.109Z,1005.79
2018-11-13T00:51:03.570Z,1005.8
2018-11-13T00:52:13.629Z,1005.8
2018-11-13T00:53:23.517Z,1005.76
2018-11-13T00:54:33.058Z,1005.77
2018-11-13T00:55:43.145Z,1005.79
2018-11-13T00:56:53.198Z,1005.81
2018-11-13T00:58:03.464Z,1005.85
2018-11-13T00:59:13.546Z,1005.78
2018-11-13T01:00:23.917Z,1005.83
2018-11-13T01:01:34.189Z,1005.83
2018-11-13T01:02:44.250Z,1005.76
2018-11-13T01:03:53.856Z,1005.78
2018-11-13T01:05:04.015Z,1005.71
2018-11-13T01:06:13.887Z,1005.71
2018-11-13T01:07:23.963Z,1005.68
2018-11-13T01:08:34.264Z,1005.72
2018-11-13T01:09:44.392Z,1005.7
2018-11-13T01:10:54.459Z,1005.68
2018-11-13T01:12:04.539Z,1005.68
2018-11-13T01:13:14.609Z,1005.67
2018-11-13T01:14:24.678Z,1005.69
2018-11-13T01:15:34.802Z,1005.64
2018-11-13T01:16:44.881Z,1005.7
2018-11-13T01:17:55.009Z,1005.66
2018-11-13T01:19:04.826Z,1005.69
2018-11-13T01:20:14.641Z,1005.68
2018-11-13T01:21:24.723Z,1005.73
2018-11-13T01:22:35.111Z,1005.7
2018-11-13T01:23:45.333Z,1005.71
2018-11-13T01:24:55.301Z,1005.71
2018-11-13T01:26:05.384Z,1005.69
2018-11-13T01:27:15.480Z,1005.68
2018-11-13T01:28:25.290Z,1005.66
2018-11-13T01:29:35.357Z,1005.66
2018-11-13T01:30:45.261Z,1005.7
2018-11-13T01:31:55.065Z,1005.73
2018-11-13T01:33:04.342Z,1005.72
2018-11-13T01:34:14.408Z,1005.75
2018-11-13T01:35:24.238Z,1005.77
2018-11-13T01:36:34.314Z,1005.76
2018-11-13T01:37:44.119Z,1005.77
2018-11-13T01:38:54.184Z,1005.74
2018-11-13T01:40:04.273Z,1005.73
2018-11-13T01:41:14.337Z,1005.69
2018-11-13T01:42:23.873Z,1005.67
2018-11-13T01:43:33.935Z,1005.65
2018-11-13T01:44:43.733Z,1005.66
2018-11-13T01:45:53.273Z,1005.63
2018-11-13T01:47:04.817Z,1005.64
2018-11-13T01:48:14.619Z,1005.65
2018-11-13T01:49:24.481Z,1005.67
2018-11-13T01:50:34.172Z,1005.63
2018-11-13T01:51:43.980Z,1005.64
2018-11-13T01:52:54.065Z,1005.63
2018-11-13T01:54:03.890Z,1005.57
2018-11-13T01:55:14.038Z,1005.56
2018-11-13T01:56:24.082Z,1005.55
2018-11-13T01:57:34.192Z,1005.51
2018-11-13T01:58:44.022Z,1005.56
2018-11-13T01:59:53.826Z,1005.56
2018-11-13T02:01:03.969Z,1005.58
2018-11-13T02:02:13.773Z,1005.66
2018-11-13T02:03:23.859Z,1005.62
2018-11-13T02:04:33.702Z,1005.62
2018-11-13T02:05:43.256Z,1005.66
2018-11-13T02:06:53.314Z,1005.68
2018-11-13T02:08:03.426Z,1005.73
2018-11-13T02:09:12.717Z,1005.71
2018-11-13T02:10:22.534Z,1005.74
2018-11-13T02:11:32.362Z,1005.77
2018-11-13T02:12:42.424Z,1005.74
2018-11-13T02:13:51.449Z,1005.76
2018-11-13T02:15:01.454Z,1005.78
2018-11-13T02:16:11.254Z,1005.77
2018-11-13T02:17:21.310Z,1005.76
2018-11-13T02:18:30.581Z,1005.79
2018-11-13T02:19:40.383Z,1005.79
2018-11-13T02:20:50.186Z,1005.77
2018-11-13T02:22:01.281Z,1005.77
2018-11-13T02:23:11.362Z,1005.78
2018-11-13T02:24:21.477Z,1005.82
2018-11-13T02:25:31.034Z,1005.77
2018-11-13T02:26:40.854Z,1005.79
2018-11-13T02:27:50.919Z,1005.74
2018-11-13T02:29:00.980Z,1005.78
2018-11-13T02:30:10.542Z,1005.73
2018-11-13T02:31:19.878Z,1005.73
2018-11-13T02:32:29.968Z,1005.69
2018-11-13T02:33:40.029Z,1005.7
2018-11-13T02:34:50.087Z,1005.67
2018-11-13T02:35:59.887Z,1005.71
2018-11-13T02:37:09.764Z,1005.71
2018-11-13T02:38:19.563Z,1005.72
2018-11-13T02:39:29.109Z,1005.71
2018-11-13T02:40:38.381Z,1005.79
2018-11-13T02:41:48.450Z,1005.74
2018-11-13T02:42:58.015Z,1005.76
2018-11-13T02:44:07.822Z,1005.78
2018-11-13T02:45:17.897Z,1005.77
2018-11-13T02:46:28.083Z,1005.75
2018-11-13T02:47:37.614Z,1005.79
2018-11-13T02:48:47.422Z,1005.78
2018-11-13T02:49:58.341Z,1005.8
2018-11-13T02:51:08.219Z,1005.8
2018-11-13T02:52:18.286Z,1005.84
2018-11-13T02:53:27.808Z,1005.81
2018-11-13T02:54:37.615Z,1005.83
2018-11-13T02:55:46.897Z,1005.86
2018-11-13T02:56:56.161Z,1005.84
2018-11-13T02:58:06.222Z,1005.78
2018-11-13T02:59:16.306Z,1005.73
2018-11-13T03:00:26.367Z,1005.7
2018-11-13T03:01:36.442Z,1005.65
2018-11-13T03:02:46.509Z,1005.65
2018-11-13T03:34:42.445Z,1005.41
2018-11-13T03:35:52.509Z,1005.44
2018-11-13T03:37:02.046Z,1005.39
2018-11-13T03:38:11.583Z,1005.42
2018-11-13T03:39:21.644Z,1005.34
2018-11-13T03:40:31.469Z,1005.36
2018-11-13T03:41:41.531Z,1005.32
2018-11-13T03:42:50.822Z,1005.32
2018-11-13T03:44:00.888Z,1005.27
2018-11-13T03:45:10.685Z,1005.29
2018-11-13T03:46:20.504Z,1005.29
2018-11-13T03:47:30.314Z,1005.3
2018-11-13T03:48:40.379Z,1005.32
2018-11-13T03:49:50.507Z,1005.26
2018-11-13T03:51:01.226Z,1005.36
2018-11-13T03:52:10.771Z,1005.37
2018-11-13T03:53:20.829Z,1005.38
2018-11-13T03:54:30.877Z,1005.39
2018-11-13T03:55:40.930Z,1005.41
2018-11-13T03:56:50.975Z,1005.44
2018-11-13T03:58:02.857Z,1005.47
2018-11-13T03:59:12.654Z,1005.43
2018-11-13T04:00:22.810Z,1005.44
2018-11-13T04:01:32.622Z,1005.41
2018-11-13T04:02:42.431Z,1005.4
2018-11-13T04:03:51.970Z,1005.38
2018-11-13T04:05:01.791Z,1005.37
2018-11-13T04:06:11.602Z,1005.38
2018-11-13T04:07:21.401Z,1005.37
2018-11-13T04:08:30.700Z,1005.41
2018-11-13T04:09:40.520Z,1005.39
2018-11-13T04:10:50.053Z,1005.4
2018-11-13T04:12:00.144Z,1005.42
2018-11-13T04:13:10.204Z,1005.37
2018-11-13T04:14:20.049Z,1005.42
2018-11-13T04:15:30.134Z,1005.39
2018-11-13T04:16:39.943Z,1005.37
2018-11-13T04:17:49.486Z,1005.38
2018-11-13T04:18:59.559Z,1005.38
2018-11-13T04:20:09.389Z,1005.41
2018-11-13T04:21:19.251Z,1005.39
2018-11-13T04:22:29.050Z,1005.44
2018-11-13T04:23:38.587Z,1005.48
2018-11-13T04:24:48.398Z,1005.46
2018-11-13T04:25:57.939Z,1005.44
2018-11-13T04:27:07.264Z,1005.41
2018-11-13T04:28:16.811Z,1005.43
2018-11-13T04:29:26.614Z,1005.43
2018-11-13T04:30:36.710Z,1005.39
2018-11-13T04:31:47.104Z,1005.39
2018-11-13T04:32:57.229Z,1005.44
2018-11-13T04:34:07.041Z,1005.46
2018-11-13T04:35:16.868Z,1005.43
2018-11-13T04:36:26.951Z,1005.45
2018-11-13T04:37:37.036Z,1005.45
2018-11-13T04:38:46.938Z,1005.43
2018-11-13T04:39:57.027Z,1005.43
2018-11-13T04:41:07.445Z,1005.43
2018-11-13T04:42:17.002Z,1005.39
2018-11-13T04:43:26.815Z,1005.34
2018-11-13T04:44:36.886Z,1005.35
2018-11-13T04:45:46.967Z,1005.28
2018-11-13T04:46:56.528Z,1005.31
2018-11-13T04:48:08.203Z,1005.28
2018-11-13T04:49:18.270Z,1005.33
2018-11-13T04:50:27.875Z,1005.36
2018-11-13T04:51:37.443Z,1005.31
2018-11-13T04:52:48.324Z,1005.33
2018-11-13T04:53:58.400Z,1005.31
2018-11-13T04:55:08.485Z,1005.31
2018-11-13T04:56:18.608Z,1005.3
2018-11-13T04:57:28.676Z,1005.29
2018-11-13T04:58:38.757Z,1005.31
2018-11-13T04:59:48.827Z,1005.26
2018-11-13T05:00:58.385Z,1005.28
2018-11-13T05:02:08.240Z,1005.29
2018-11-13T05:03:18.068Z,1005.3
2018-11-13T05:04:28.149Z,1005.27
2018-11-13T05:05:38.217Z,1005.26
2018-11-13T05:06:48.025Z,1005.28
2018-11-13T05:07:57.887Z,1005.21
2018-11-13T05:09:08.332Z,1005.25
2018-11-13T05:10:18.032Z,1005.23
2018-11-13T05:11:28.414Z,1005.21
2018-11-13T05:12:38.496Z,1005.24
2018-11-13T05:13:48.565Z,1005.26
2018-11-13T05:14:58.631Z,1005.27
2018-11-13T05:16:08.459Z,1005.26
2018-11-13T05:17:18.009Z,1005.31
2018-11-13T05:18:27.838Z,1005.32
2018-11-13T05:19:37.634Z,1005.3
2018-11-13T05:20:47.200Z,1005.25
2018-11-13T05:21:57.279Z,1005.32
2018-11-13T05:23:07.399Z,1005.26
2018-11-13T05:24:18.204Z,1005.27
2018-11-13T05:25:27.797Z,1005.25
2018-11-13T05:26:37.081Z,1005.26
2018-11-13T05:27:46.637Z,1005.3
2018-11-13T05:28:56.709Z,1005.27
2018-11-13T05:30:06.646Z,1005.31
2018-11-13T05:31:16.720Z,1005.27
2018-11-13T05:32:26.811Z,1005.25
2018-11-13T05:33:36.364Z,1005.34
2018-11-13T05:34:45.916Z,1005.37
2018-11-13T05:35:55.995Z,1005.37
2018-11-13T05:37:05.631Z,1005.4
2018-11-13T05:38:15.175Z,1005.38
2018-11-13T05:39:24.457Z,1005.35
2018-11-13T05:40:34.286Z,1005.34
2018-11-13T05:41:44.213Z,1005.33
2018-11-13T05:42:54.999Z,1005.33
2018-11-13T05:44:04.531Z,1005.33
2018-11-13T05:45:14.361Z,1005.35
2018-11-13T05:46:24.438Z,1005.35
2018-11-13T05:47:34.244Z,1005.29
2018-11-13T05:48:44.359Z,1005.27
2018-11-13T05:49:53.903Z,1005.31
2018-11-13T05:51:06.195Z,1005.28
2018-11-13T05:52:15.996Z,1005.29
2018-11-13T05:53:25.813Z,1005.34
2018-11-13T05:54:35.901Z,1005.35
2018-11-13T05:55:45.697Z,1005.37
2018-11-13T05:56:55.765Z,1005.37
2018-11-13T05:58:06.305Z,1005.39
2018-11-13T05:59:15.827Z,1005.37
2018-11-13T06:00:25.673Z,1005.38
2018-11-13T06:01:35.507Z,1005.4
2018-11-13T06:02:45.570Z,1005.44
2018-11-13T06:03:55.642Z,1005.46
2018-11-13T06:05:05.186Z,1005.47
2018-11-13T06:06:15.317Z,1005.5
2018-11-13T06:07:24.589Z,1005.46
2018-11-13T06:08:34.255Z,1005.45
2018-11-13T06:09:44.583Z,1005.45
2018-11-13T06:10:53.864Z,1005.5
2018-11-13T06:12:04.125Z,1005.49
2018-11-13T06:13:14.214Z,1005.5
2018-11-13T06:14:24.021Z,1005.58
2018-11-13T06:15:33.825Z,1005.56
2018-11-13T06:16:43.631Z,1005.6
2018-11-13T06:17:53.438Z,1005.58
2018-11-13T06:19:03.654Z,1005.57
2018-11-13T06:20:13.710Z,1005.59
2018-11-13T06:21:23.799Z,1005.57
2018-11-13T06:22:33.330Z,1005.55
2018-11-13T06:23:43.126Z,1005.48
2018-11-13T06:24:53.203Z,1005.47
2018-11-13T06:26:03.256Z,1005.45
2018-11-13T06:27:12.810Z,1005.44
2018-11-13T06:28:22.897Z,1005.52
2018-11-13T06:29:32.990Z,1005.52
2018-11-13T06:30:43.205Z,1005.56
2018-11-13T06:31:53.284Z,1005.61
2018-11-13T06:33:03.201Z,1005.63
2018-11-13T06:34:12.755Z,1005.68
2018-11-13T06:35:22.629Z,1005.65
2018-11-13T06:36:32.684Z,1005.62
2018-11-13T06:37:42.497Z,1005.62
2018-11-13T06:38:52.662Z,1005.66
2018-11-13T06:40:02.775Z,1005.72
2018-11-13T06:41:12.917Z,1005.73
2018-11-13T06:42:22.741Z,1005.76
2018-11-13T06:43:32.809Z,1005.8
2018-11-13T06:44:42.896Z,1005.83
2018-11-13T06:45:52.704Z,1005.82
2018-11-13T06:47:02.547Z,1005.86
2018-11-13T06:48:12.339Z,1005.83
2018-11-13T06:49:22.453Z,1005.84
2018-11-13T06:50:31.912Z,1005.81
2018-11-13T06:51:41.456Z,1005.79
2018-11-13T06:52:51.250Z,1005.76
2018-11-13T06:54:00.795Z,1005.76
2018-11-13T06:55:10.083Z,1005.78
2018-11-13T06:56:19.640Z,1005.83
2018-11-13T06:57:29.182Z,1005.86
2018-11-13T06:58:38.570Z,1005.94
2018-11-13T06:59:48.693Z,1005.93
2018-11-13T07:00:58.511Z,1005.94
2018-11-13T07:02:08.500Z,1005.96
2018-11-13T07:03:18.315Z,1005.96
2018-11-13T07:04:28.118Z,1006.01
2018-11-13T07:05:37.653Z,1006.03
2018-11-13T07:06:46.940Z,1006.04
2018-11-13T07:07:56.217Z,1006.08
2018-11-13T07:09:06.375Z,1006.05
2018-11-13T07:10:15.650Z,1006.02
2018-11-13T07:11:25.596Z,1006.04
2018-11-13T07:12:34.984Z,1005.98
2018-11-13T07:13:44.544Z,1005.94
2018-11-13T07:14:54.076Z,1005.9
2018-11-13T07:16:04.149Z,1005.89
2018-11-13T07:17:14.205Z,1005.86
2018-11-13T07:18:24.040Z,1005.89
2018-11-13T07:19:33.564Z,1005.92
2018-11-13T07:20:43.659Z,1005.93
2018-11-13T07:21:53.514Z,1005.92
2018-11-13T07:23:03.106Z,1005.91
2018-11-13T07:24:12.701Z,1005.89
2018-11-13T07:25:22.874Z,1005.85
2018-11-13T07:26:33.375Z,1005.82
2018-11-13T07:27:43.300Z,1005.8
2018-11-13T07:28:54.037Z,1005.81
2018-11-13T07:30:03.850Z,1005.81
2018-11-13T07:31:14.036Z,1005.85
2018-11-13T07:32:24.139Z,1005.82
2018-11-13T07:33:34.031Z,1005.85
2018-11-13T07:34:44.318Z,1005.83
2018-11-13T07:35:54.397Z,1005.88
2018-11-13T07:37:04.215Z,1005.83
2018-11-13T07:38:14.025Z,1005.84
2018-11-13T07:39:23.872Z,1005.85
2018-11-13T07:40:33.439Z,1005.87
2018-11-13T07:41:42.981Z,1005.9
2018-11-13T07:42:52.517Z,1005.94
2018-11-13T07:44:02.599Z,1005.96
2018-11-13T07:45:12.147Z,1005.92
2018-11-13T07:46:21.692Z,1005.94
2018-11-13T07:47:32.088Z,1005.96
2018-11-13T07:48:43.412Z,1005.98
2018-11-13T07:49:53.525Z,1005.99
2018-11-13T07:51:03.745Z,1006.03
2018-11-13T07:52:14.307Z,1006.05
2018-11-13T07:53:24.220Z,1006.05
2018-11-13T07:54:34.279Z,1006.06
2018-11-13T07:55:44.089Z,1006.1
2018-11-13T07:56:54.139Z,1006.11
2018-11-13T07:58:03.971Z,1006.12
2018-11-13T07:59:13.789Z,1006.16
2018-11-13T08:00:23.589Z,1006.13
2018-11-13T08:01:33.412Z,1006.11
2018-11-13T08:02:43.293Z,1006.08
2018-11-13T08:03:53.130Z,1006.08
2018-11-13T08:05:03.208Z,1006.07
2018-11-13T08:06:13.079Z,1006.06
2018-11-13T08:07:23.733Z,1006.04
2018-11-13T08:08:33.343Z,1006.05
2018-11-13T08:09:43.158Z,1006.12
2018-11-13T08:10:52.970Z,1006.14
2018-11-13T08:12:02.601Z,1006.11
2018-11-13T08:13:12.819Z,1006.14
2018-11-13T08:14:22.909Z,1006.17
2018-11-13T08:15:32.765Z,1006.21
2018-11-13T08:16:43.127Z,1006.24
2018-11-13T08:17:53.210Z,1006.28
2018-11-13T08:19:03.289Z,1006.26
2018-11-13T08:20:13.138Z,1006.25
2018-11-13T08:21:23.231Z,1006.21
2018-11-13T08:22:33.312Z,1006.22
2018-11-13T08:23:43.391Z,1006.2
2018-11-13T08:24:53.215Z,1006.25
2018-11-13T08:26:03.019Z,1006.23
2018-11-13T08:27:12.964Z,1006.27
2018-11-13T08:28:22.907Z,1006.27
2018-11-13T08:29:32.552Z,1006.29
2018-11-13T08:30:42.623Z,1006.28
2018-11-13T08:31:52.495Z,1006.27
2018-11-13T08:33:02.354Z,1006.28
2018-11-13T08:34:12.377Z,1006.26
2018-11-13T08:35:22.482Z,1006.25
2018-11-13T08:36:32.324Z,1006.21
2018-11-13T08:37:42.398Z,1006.23
2018-11-13T08:38:52.456Z,1006.2
2018-11-13T08:40:03.707Z,1006.24
2018-11-13T08:41:13.519Z,1006.27
2018-11-13T08:42:23.320Z,1006.26
2018-11-13T08:43:33.383Z,1006.21
2018-11-13T08:44:43.342Z,1006.22
2018-11-13T08:45:53.418Z,1006.15
2018-11-13T08:47:04.279Z,1006.15
2018-11-13T08:48:14.359Z,1006.16
2018-11-13T08:49:24.166Z,1006.14
2018-11-13T08:50:34.380Z,1006.22
2018-11-13T08:51:44.875Z,1006.15
2018-11-13T08:52:54.675Z,1006.15
2018-11-13T08:54:04.749Z,1006.13
2018-11-13T08:55:14.626Z,1006.16
2018-11-13T08:56:24.696Z,1006.2
2018-11-13T08:57:34.505Z,1006.24
2018-11-13T08:58:44.346Z,1006.34
2018-11-13T08:59:54.584Z,1006.41
2018-11-13T09:01:04.693Z,1006.42
2018-11-13T09:02:14.759Z,1006.41
2018-11-13T09:03:24.569Z,1006.44
2018-11-13T09:04:34.633Z,1006.46
2018-11-13T09:05:44.182Z,1006.43
2018-11-13T09:06:54.316Z,1006.46
2018-11-13T09:08:04.134Z,1006.48
2018-11-13T09:09:13.940Z,1006.49
2018-11-13T09:10:23.754Z,1006.37
2018-11-13T09:11:33.372Z,1006.38
2018-11-13T09:12:43.741Z,1006.34
2018-11-13T09:13:53.551Z,1006.34
2018-11-13T09:15:02.928Z,1006.33
2018-11-13T09:16:12.739Z,1006.32
2018-11-13T09:17:22.820Z,1006.33
2018-11-13T09:18:32.643Z,1006.38
2018-11-13T09:19:42.866Z,1006.43
2018-11-13T09:20:53.412Z,1006.44
2018-11-13T09:22:03.226Z,1006.45
2018-11-13T09:23:12.772Z,1006.46
2018-11-13T09:24:22.062Z,1006.48
2018-11-13T09:25:32.127Z,1006.51
2018-11-13T09:26:42.199Z,1006.5
2018-11-13T09:27:51.983Z,1006.45
2018-11-13T09:29:01.790Z,1006.47
2018-11-13T09:30:11.991Z,1006.41
2018-11-13T09:31:22.860Z,1006.37
2018-11-13T09:32:33.073Z,1006.35
2018-11-13T09:33:42.624Z,1006.35
2018-11-13T09:34:52.703Z,1006.36
2018-11-13T09:36:02.938Z,1006.43
2018-11-13T09:37:12.763Z,1006.46
2018-11-13T09:38:22.662Z,1006.51
2018-11-13T09:39:32.798Z,1006.53
2018-11-13T09:40:42.626Z,1006.56
2018-11-13T09:41:52.176Z,1006.59
2018-11-13T09:43:01.456Z,1006.62
2018-11-13T09:44:11.278Z,1006.65
2018-11-13T09:45:20.833Z,1006.63
2018-11-13T09:46:30.910Z,1006.65
2018-11-13T09:47:41.249Z,1006.66
2018-11-13T09:48:51.703Z,1006.69
2018-11-13T09:50:03.694Z,1006.72
2018-11-13T09:51:13.511Z,1006.76
2018-11-13T09:52:23.319Z,1006.78
2018-11-13T09:53:33.567Z,1006.8
2018-11-13T09:54:44.231Z,1006.77
2018-11-13T09:55:54.023Z,1006.78
2018-11-13T09:57:03.713Z,1006.78
2018-11-13T09:58:13.376Z,1006.82
2018-11-13T09:59:23.425Z,1006.81
2018-11-13T10:00:33.663Z,1006.88
2018-11-13T10:01:45.188Z,1006.94
2018-11-13T10:03:00.177Z,1006.91
2018-11-13T10:04:13.331Z,1006.95
2018-11-13T10:05:25.025Z,1006.96
2018-11-13T10:06:35.479Z,1007.03
2018-11-13T10:07:45.413Z,1006.98
2018-11-13T10:08:55.485Z,1007
2018-11-13T10:10:05.089Z,1007.03
2018-11-13T10:11:15.221Z,1007.01
2018-11-13T10:12:25.040Z,1006.98
2018-11-13T10:13:34.576Z,1006.93
2018-11-13T10:14:44.395Z,1006.92
2018-11-13T10:15:54.459Z,1006.95
2018-11-13T10:17:04.339Z,1006.93
2018-11-13T10:18:14.549Z,1006.94
2018-11-13T10:19:25.391Z,1006.93
2018-11-13T10:20:35.492Z,1006.89
2018-11-13T10:21:45.323Z,1006.97
2018-11-13T10:22:55.376Z,1007.04
2018-11-13T10:24:05.344Z,1007.01
2018-11-13T10:25:14.887Z,1006.98
2018-11-13T10:26:24.812Z,1006.93
2018-11-13T10:27:34.662Z,1006.98
2018-11-13T10:28:44.986Z,1006.92
2018-11-13T10:29:55.149Z,1006.91
2018-11-13T10:31:05.684Z,1006.9
2018-11-13T10:32:15.503Z,1006.91
2018-11-13T10:33:25.055Z,1006.91
2018-11-13T10:34:34.591Z,1006.96
2018-11-13T10:35:44.406Z,1006.93
2018-11-13T10:36:54.464Z,1006.91
2018-11-13T10:38:04.275Z,1006.93
2018-11-13T10:39:13.811Z,1006.94
2018-11-13T10:40:23.689Z,1006.96
2018-11-13T10:41:34.593Z,1006.99
2018-11-13T10:42:44.858Z,1006.99
2018-11-13T10:43:54.671Z,1007.01
2018-11-13T10:45:03.936Z,1007.04
2018-11-13T10:46:13.744Z,1007.05
2018-11-13T10:47:23.815Z,1007.08
2018-11-13T10:48:33.392Z,1007.09
2018-11-13T10:49:43.358Z,1007.06
2018-11-13T10:50:53.421Z,1007.12
2018-11-13T10:52:05.127Z,1007.04
2018-11-13T10:53:14.938Z,1007.03
2018-11-13T10:54:25.009Z,1006.99
2018-11-13T10:55:34.827Z,1007.07
2018-11-13T10:56:44.387Z,1007.02
2018-11-13T10:57:54.462Z,1007.08
2018-11-13T10:59:04.289Z,1007.08
2018-11-13T11:00:14.506Z,1007.11
2018-11-13T11:01:24.319Z,1007.06
2018-11-13T11:02:34.271Z,1007.11
2018-11-13T11:03:44.719Z,1007.04
2018-11-13T11:04:54.533Z,1007.03
2018-11-13T11:06:04.609Z,1007.03
2018-11-13T11:07:14.166Z,1007.03
2018-11-13T11:08:24.006Z,1007.02
2018-11-13T11:09:34.141Z,1007.03
2018-11-13T11:10:43.684Z,1007.06
2018-11-13T11:11:53.946Z,1007.08
2018-11-13T11:13:03.944Z,1007.11
2018-11-13T11:14:15.463Z,1007.06
2018-11-13T11:15:25.245Z,1007.06
2018-11-13T11:16:34.832Z,1007.02
2018-11-13T11:17:44.912Z,1007.02
2018-11-13T11:18:55.069Z,1006.96
2018-11-13T11:20:06.002Z,1006.88
2018-11-13T11:21:15.816Z,1006.94
2018-11-13T11:22:25.371Z,1006.96
2018-11-13T11:23:35.240Z,1006.99
2018-11-13T11:24:45.877Z,1006.99
2018-11-13T11:25:55.956Z,1007.04
2018-11-13T11:27:05.290Z,1007.1
2018-11-13T11:28:15.206Z,1007.07
2018-11-13T11:29:24.180Z,1007.12
2018-11-13T11:30:33.723Z,1007.13
2018-11-13T11:31:43.525Z,1007.11
2018-11-13T11:32:53.067Z,1007.09
2018-11-13T11:34:03.244Z,1007.06
2018-11-13T11:35:13.336Z,1007.14
2018-11-13T11:36:23.178Z,1007.13
2018-11-13T11:37:32.991Z,1007.13
2018-11-13T11:38:43.197Z,1007.06
2018-11-13T11:39:54.022Z,1007.1
2018-11-13T11:41:03.881Z,1007.05
2018-11-13T11:42:13.959Z,1007.1
2018-11-13T11:43:23.496Z,1007.1
2018-11-13T11:44:33.362Z,1007.14
2018-11-13T11:45:43.169Z,1007.19
2018-11-13T11:46:53.458Z,1007.17
2018-11-13T11:48:03.264Z,1007.19
2018-11-13T11:49:13.401Z,1007.26
2018-11-13T11:50:22.942Z,1007.25
2018-11-13T11:51:32.728Z,1007.27
2018-11-13T11:52:42.586Z,1007.26
2018-11-13T11:53:52.540Z,1007.26
2018-11-13T11:55:02.579Z,1007.3
2018-11-13T11:56:12.644Z,1007.3
2018-11-13T11:57:22.708Z,1007.31
2018-11-13T11:58:32.781Z,1007.32
2018-11-13T11:59:42.336Z,1007.29
2018-11-13T12:00:52.599Z,1007.33
2018-11-13T12:02:02.801Z,1007.36
2018-11-13T12:03:12.508Z,1007.38
2018-11-13T12:04:22.328Z,1007.4
2018-11-13T12:05:32.214Z,1007.33
2018-11-13T12:06:42.061Z,1007.36
2018-11-13T12:07:51.873Z,1007.34
2018-11-13T12:09:02.528Z,1007.33
2018-11-13T12:10:12.623Z,1007.27
2018-11-13T12:11:22.440Z,1007.38
2018-11-13T12:12:32.277Z,1007.38
2018-11-13T12:13:42.104Z,1007.38
2018-11-13T12:14:52.184Z,1007.47
2018-11-13T12:16:02.267Z,1007.46
2018-11-13T12:17:12.387Z,1007.47
2018-11-13T12:18:22.197Z,1007.48
2018-11-13T12:19:31.878Z,1007.51
2018-11-13T12:20:41.927Z,1007.49
2018-11-13T12:21:51.789Z,1007.56
2018-11-13T12:23:01.924Z,1007.54
2018-11-13T12:24:12.021Z,1007.53
2018-11-13T12:25:21.865Z,1007.47
2018-11-13T12:26:31.686Z,1007.41
2018-11-13T12:27:42.593Z,1007.38
2018-11-13T12:28:52.675Z,1007.36
2018-11-13T12:30:02.955Z,1007.36
2018-11-13T12:31:12.770Z,1007.27
2018-11-13T12:32:22.570Z,1007.31
2018-11-13T12:33:32.656Z,1007.33
2018-11-13T12:34:42.718Z,1007.38
2018-11-13T12:35:53.021Z,1007.36
2018-11-13T12:37:03.162Z,1007.32
2018-11-13T12:38:12.960Z,1007.31
2018-11-13T12:39:23.059Z,1007.33
2018-11-13T12:40:33.201Z,1007.29
2018-11-13T12:41:44.703Z,1007.28
2018-11-13T12:42:54.508Z,1007.33
2018-11-13T12:44:04.611Z,1007.35
2018-11-13T12:45:14.697Z,1007.33
2018-11-13T12:46:24.264Z,1007.34
2018-11-13T12:47:34.500Z,1007.34
2018-11-13T12:48:43.838Z,1007.35
2018-11-13T12:49:54.066Z,1007.35
2018-11-13T12:51:04.176Z,1007.38
2018-11-13T12:52:14.245Z,1007.39
2018-11-13T12:53:24.812Z,1007.49
2018-11-13T12:54:34.611Z,1007.44
2018-11-13T12:55:44.607Z,1007.48
2018-11-13T12:56:55.735Z,1007.47
2018-11-13T12:58:06.727Z,1007.49
2018-11-13T12:59:16.806Z,1007.51
2018-11-13T13:00:26.613Z,1007.5
2018-11-13T13:01:36.438Z,1007.52
2018-11-13T13:02:46.502Z,1007.52
2018-11-13T13:03:56.041Z,1007.52
2018-11-13T13:05:05.835Z,1007.49
2018-11-13T13:06:15.913Z,1007.51
2018-11-13T13:07:25.208Z,1007.55
2018-11-13T13:08:35.467Z,1007.55
2018-11-13T13:09:45.897Z,1007.52
2018-11-13T13:10:55.991Z,1007.49
2018-11-13T13:12:06.306Z,1007.55
2018-11-13T13:13:15.866Z,1007.6
2018-11-13T13:14:25.940Z,1007.53
2018-11-13T13:15:35.537Z,1007.58
2018-11-13T13:16:45.356Z,1007.52
2018-11-13T13:17:55.436Z,1007.54
2018-11-13T13:19:05.658Z,1007.52
2018-11-13T13:20:15.876Z,1007.6
2018-11-13T13:21:25.975Z,1007.64
2018-11-13T13:22:36.096Z,1007.64
2018-11-13T13:23:46.189Z,1007.66
2018-11-13T13:24:56.000Z,1007.67
2018-11-13T13:26:05.544Z,1007.61
2018-11-13T13:27:14.821Z,1007.58
2018-11-13T13:28:24.406Z,1007.59
2018-11-13T13:29:33.950Z,1007.54
2018-11-13T13:30:43.512Z,1007.56
2018-11-13T13:31:53.595Z,1007.51
2018-11-13T13:33:03.944Z,1007.52
2018-11-13T13:34:13.273Z,1007.49
2018-11-13T13:35:22.816Z,1007.53
2018-11-13T13:36:32.358Z,1007.49
2018-11-13T13:37:41.901Z,1007.49
2018-11-13T13:38:52.078Z,1007.51
2018-11-13T13:40:03.031Z,1007.51
2018-11-13T13:41:12.850Z,1007.5
2018-11-13T13:42:22.656Z,1007.52
2018-11-13T13:43:32.728Z,1007.55
2018-11-13T13:44:42.593Z,1007.63
2018-11-13T13:45:52.682Z,1007.64
2018-11-13T13:47:02.235Z,1007.67
2018-11-13T13:48:12.431Z,1007.68
2018-11-13T13:49:22.269Z,1007.67
2018-11-13T13:50:32.104Z,1007.66
2018-11-13T13:51:41.657Z,1007.64
2018-11-13T13:52:51.466Z,1007.67
2018-11-13T13:54:01.632Z,1007.63
2018-11-13T13:55:12.800Z,1007.66
2018-11-13T13:56:24.135Z,1007.71
2018-11-13T13:57:33.964Z,1007.77
2018-11-13T13:58:44.075Z,1007.8
2018-11-13T13:59:53.966Z,1007.7
2018-11-13T14:01:05.578Z,1007.76
2018-11-13T14:02:16.041Z,1007.72
2018-11-13T14:03:25.926Z,1007.76
2018-11-13T14:04:37.480Z,1007.75
2018-11-13T14:05:47.304Z,1007.75
2018-11-13T14:06:57.353Z,1007.81
2018-11-13T14:08:07.442Z,1007.84
2018-11-13T14:09:17.030Z,1007.9
2018-11-13T14:10:27.648Z,1007.88
2018-11-13T14:11:37.468Z,1007.83
2018-11-13T14:12:47.019Z,1007.82
2018-11-13T14:13:56.875Z,1007.79
2018-11-13T14:15:06.884Z,1007.87
2018-11-13T14:16:17.265Z,1007.91
2018-11-13T14:17:27.088Z,1007.99
2018-11-13T14:18:36.627Z,1008.1
2018-11-13T14:19:46.465Z,1008.2
2018-11-13T14:20:56.325Z,1008.2
2018-11-13T14:22:06.643Z,1008.17
2018-11-13T14:23:16.757Z,1008.15
2018-11-13T14:24:26.067Z,1008.2
2018-11-13T14:25:35.875Z,1008.21
2018-11-13T14:26:45.698Z,1008.19
2018-11-13T14:27:55.545Z,1008.2
2018-11-13T14:29:05.695Z,1008.17
2018-11-13T14:30:15.762Z,1008.15
2018-11-13T14:31:25.904Z,1008.16
2018-11-13T14:32:35.989Z,1008.17
2018-11-13T14:33:46.092Z,1008.15
2018-11-13T14:34:55.910Z,1008.2
2018-11-13T14:36:05.716Z,1008.15
2018-11-13T14:37:15.848Z,1008.09
2018-11-13T14:38:25.987Z,1008.12
2018-11-13T14:39:36.083Z,1008.15